createdAt,value
2017-01-13T00:00:21.349Z,18.57
2017-01-13T00:01:31.266Z,18.7
2017-01-13T00:02:41.583Z,18.71
2017-01-13T00:03:51.518Z,18.63
2017-01-13T00:05:01.460Z,18.7
2017-01-13T00:06:11.768Z,18.67
2017-01-13T00:07:21.684Z,18.76
2017-01-13T00:08:31.611Z,18.68
2017-01-13T00:09:41.922Z,18.7
2017-01-13T00:10:52.238Z,18.67
2017-01-13T00:12:02.956Z,18.68
2017-01-13T00:13:13.275Z,18.61
2017-01-13T00:14:23.201Z,18.7
2017-01-13T00:15:33.931Z,18.71
2017-01-13T00:16:44.254Z,18.67
2017-01-13T00:17:53.774Z,18.73
2017-01-13T00:19:04.097Z,18.73
2017-01-13T00:20:14.021Z,18.74
2017-01-13T00:21:24.335Z,18.73
2017-01-13T00:22:35.052Z,18.71
2017-01-13T00:23:45.761Z,18.79
2017-01-13T00:24:56.469Z,18.7
2017-01-13T00:26:06.392Z,18.68
2017-01-13T00:27:16.728Z,18.64
2017-01-13T00:28:27.052Z,18.63
2017-01-13T00:29:37.368Z,18.66
2017-01-13T00:30:47.675Z,18.68
2017-01-13T00:31:57.598Z,18.55
2017-01-13T00:33:07.128Z,18.66
2017-01-13T00:34:17.457Z,18.71
2017-01-13T00:35:27.774Z,18.63
2017-01-13T00:36:38.101Z,18.66
2017-01-13T00:37:48.811Z,18.64
2017-01-13T00:38:58.335Z,18.71
2017-01-13T00:40:09.048Z,18.66
2017-01-13T00:41:19.758Z,18.61
2017-01-13T00:42:30.079Z,18.6
2017-01-13T00:43:40.401Z,18.67
2017-01-13T00:44:50.722Z,18.64
2017-01-13T00:46:00.248Z,18.68
2017-01-13T00:47:10.164Z,18.61
2017-01-13T00:48:20.865Z,18.57
2017-01-13T00:49:31.579Z,18.64
2017-01-13T00:50:42.312Z,18.7
2017-01-13T00:51:52.642Z,18.66
2017-01-13T00:53:02.565Z,18.68
2017-01-13T00:54:13.275Z,18.67
2017-01-13T00:55:22.401Z,18.68
2017-01-13T00:56:32.331Z,18.6
2017-01-13T00:57:42.279Z,18.66
2017-01-13T00:58:52.603Z,18.58
2017-01-13T01:00:02.906Z,18.58
2017-01-13T01:01:12.823Z,18.66
2017-01-13T01:02:23.144Z,18.73
2017-01-13T01:03:33.857Z,18.61
2017-01-13T01:04:44.562Z,18.64
2017-01-13T01:05:54.875Z,18.68
2017-01-13T01:07:05.605Z,18.58
2017-01-13T01:08:15.919Z,18.6
2017-01-13T01:09:25.845Z,18.55
2017-01-13T01:10:36.161Z,18.66
2017-01-13T01:11:46.478Z,18.53
2017-01-13T01:12:57.189Z,18.7
2017-01-13T01:14:07.106Z,18.58
2017-01-13T01:15:16.632Z,18.61
2017-01-13T01:16:27.349Z,18.57
2017-01-13T01:17:38.072Z,18.58
2017-01-13T01:18:47.986Z,18.61
2017-01-13T01:19:58.695Z,18.61
2017-01-13T01:21:08.219Z,18.7
2017-01-13T01:22:18.545Z,18.7
2017-01-13T01:23:29.262Z,18.61
2017-01-13T01:24:39.579Z,18.61
2017-01-13T01:25:49.889Z,18.7
2017-01-13T01:27:00.209Z,18.64
2017-01-13T01:28:10.916Z,18.55
2017-01-13T01:29:20.840Z,18.6
2017-01-13T01:30:31.156Z,18.61
2017-01-13T01:31:41.864Z,18.57
2017-01-13T01:32:52.181Z,18.61
2017-01-13T01:34:02.894Z,18.64
2017-01-13T01:35:12.821Z,18.6
2017-01-13T01:36:22.740Z,18.52
2017-01-13T01:37:32.667Z,18.58
2017-01-13T01:38:42.635Z,18.68
2017-01-13T01:39:52.933Z,18.6
2017-01-13T01:41:03.636Z,18.61
2017-01-13T01:42:13.938Z,18.7
2017-01-13T01:43:24.247Z,18.61
2017-01-13T01:44:34.952Z,18.58
2017-01-13T01:45:44.472Z,18.58
2017-01-13T01:46:54.801Z,18.58
2017-01-13T01:48:05.112Z,18.6
2017-01-13T01:49:15.427Z,18.61
2017-01-13T01:50:26.151Z,18.58
2017-01-13T01:51:36.459Z,18.52
2017-01-13T01:52:46.776Z,18.61
2017-01-13T01:53:57.102Z,18.6
2017-01-13T01:55:07.025Z,18.53
2017-01-13T01:56:16.945Z,18.57
2017-01-13T01:57:26.469Z,18.58
2017-01-13T01:58:36.789Z,18.58
2017-01-13T01:59:47.101Z,18.51
2017-01-13T02:00:57.022Z,18.6
2017-01-13T02:02:07.336Z,18.55
2017-01-13T02:03:17.659Z,18.46
2017-01-13T02:04:27.979Z,18.55
2017-01-13T02:05:38.687Z,18.55
2017-01-13T02:06:49.397Z,18.55
2017-01-13T02:07:59.320Z,18.6
2017-01-13T02:09:09.285Z,18.58
2017-01-13T02:10:19.233Z,18.66
2017-01-13T02:11:29.147Z,18.6
2017-01-13T02:12:39.460Z,18.57
2017-01-13T02:13:48.998Z,18.58
2017-01-13T02:14:59.307Z,18.57
2017-01-13T02:16:09.637Z,18.55
2017-01-13T02:17:19.169Z,18.48
2017-01-13T02:18:29.470Z,18.45
2017-01-13T02:19:39.399Z,18.55
2017-01-13T02:20:49.720Z,18.57
2017-01-13T02:22:00.042Z,18.53
2017-01-13T02:23:09.965Z,18.52
2017-01-13T02:24:19.886Z,18.46
2017-01-13T02:25:30.602Z,18.6
2017-01-13T02:26:40.919Z,18.45
2017-01-13T02:27:50.827Z,18.49
2017-01-13T02:29:01.154Z,18.43
2017-01-13T02:30:10.681Z,18.55
2017-01-13T02:31:20.994Z,18.52
2017-01-13T02:32:30.939Z,18.48
2017-01-13T02:33:41.253Z,18.53
2017-01-13T02:34:51.201Z,18.55
2017-01-13T02:36:01.518Z,18.51
2017-01-13T02:37:11.432Z,18.51
2017-01-13T02:38:20.574Z,18.57
2017-01-13T02:39:30.901Z,18.58
2017-01-13T02:40:41.608Z,18.53
2017-01-13T02:41:51.528Z,18.51
2017-01-13T02:43:02.229Z,18.52
2017-01-13T02:44:12.158Z,18.57
2017-01-13T02:45:22.472Z,18.48
2017-01-13T02:46:33.179Z,18.48
2017-01-13T02:47:43.886Z,18.46
2017-01-13T02:48:54.622Z,18.43
2017-01-13T02:50:04.933Z,18.48
2017-01-13T02:51:15.242Z,18.57
2017-01-13T02:52:25.948Z,18.58
2017-01-13T02:53:36.267Z,18.53
2017-01-13T02:54:46.574Z,18.53
2017-01-13T02:55:56.872Z,18.52
2017-01-13T02:57:06.404Z,18.53
2017-01-13T02:58:16.318Z,18.48
2017-01-13T02:59:26.638Z,18.43
2017-01-13T03:00:36.587Z,18.52
2017-01-13T03:01:47.298Z,18.51
2017-01-13T03:02:57.214Z,18.57
2017-01-13T03:04:07.918Z,18.52
2017-01-13T03:05:17.835Z,18.58
2017-01-13T03:06:27.361Z,18.51
2017-01-13T03:07:38.308Z,18.51
2017-01-13T03:08:48.216Z,18.48
2017-01-13T03:09:58.162Z,18.51
2017-01-13T03:11:07.285Z,18.43
2017-01-13T03:12:17.195Z,18.45
2017-01-13T03:13:27.115Z,18.43
2017-01-13T03:14:37.029Z,18.55
2017-01-13T03:15:47.736Z,18.51
2017-01-13T03:16:58.485Z,18.51
2017-01-13T03:18:08.789Z,18.58
2017-01-13T03:19:19.102Z,18.46
2017-01-13T03:20:29.653Z,18.48
2017-01-13T03:21:39.823Z,18.45
2017-01-13T03:22:50.127Z,18.42
2017-01-13T03:24:00.866Z,18.42
2017-01-13T03:25:10.805Z,18.46
2017-01-13T03:26:21.381Z,18.41
2017-01-13T03:27:32.092Z,18.46
2017-01-13T03:28:42.800Z,18.52
2017-01-13T03:29:53.109Z,18.45
2017-01-13T03:31:03.022Z,18.45
2017-01-13T03:32:13.358Z,18.36
2017-01-13T03:33:23.685Z,18.43
2017-01-13T03:34:33.605Z,18.43
2017-01-13T03:35:43.927Z,18.34
2017-01-13T03:36:54.635Z,18.46
2017-01-13T03:38:05.345Z,18.42
2017-01-13T03:39:16.046Z,18.41
2017-01-13T03:40:25.969Z,18.45
2017-01-13T03:41:35.877Z,18.45
2017-01-13T03:42:46.194Z,18.45
2017-01-13T03:43:56.894Z,18.49
2017-01-13T03:45:07.209Z,18.45
2017-01-13T03:46:17.919Z,18.41
2017-01-13T03:47:28.641Z,18.42
2017-01-13T03:48:39.344Z,18.41
2017-01-13T03:49:50.059Z,18.31
2017-01-13T03:51:00.395Z,18.37
2017-01-13T03:52:10.312Z,18.43
2017-01-13T03:53:20.238Z,18.36
2017-01-13T03:54:30.562Z,18.43
2017-01-13T03:55:40.875Z,18.43
2017-01-13T03:56:51.591Z,18.39
2017-01-13T03:58:02.314Z,18.37
2017-01-13T03:59:11.441Z,18.34
2017-01-13T04:00:21.351Z,18.24
2017-01-13T04:01:32.065Z,18.21
2017-01-13T04:02:42.401Z,18.21
2017-01-13T04:03:52.325Z,18.36
2017-01-13T04:05:02.247Z,18.36
2017-01-13T04:06:12.556Z,18.41
2017-01-13T04:07:22.472Z,18.39
2017-01-13T04:08:33.174Z,18.34
2017-01-13T04:09:43.083Z,18.48
2017-01-13T04:10:53.008Z,18.43
2017-01-13T04:12:02.931Z,18.34
2017-01-13T04:13:13.240Z,18.45
2017-01-13T04:14:23.150Z,18.33
2017-01-13T04:15:33.854Z,18.46
2017-01-13T04:16:44.164Z,18.46
2017-01-13T04:17:54.078Z,18.49
2017-01-13T04:19:04.407Z,18.49
2017-01-13T04:20:14.718Z,18.42
2017-01-13T04:21:24.632Z,18.49
2017-01-13T04:22:34.945Z,18.39
2017-01-13T04:23:45.652Z,18.46
2017-01-13T04:24:56.382Z,18.48
2017-01-13T04:26:06.296Z,18.46
2017-01-13T04:27:16.603Z,18.48
2017-01-13T04:28:26.524Z,18.46
2017-01-13T04:29:36.452Z,18.49
2017-01-13T04:30:46.766Z,18.37
2017-01-13T04:31:57.080Z,18.43
2017-01-13T04:33:07.393Z,18.45
2017-01-13T04:34:17.710Z,18.42
2017-01-13T04:35:28.427Z,18.34
2017-01-13T04:36:38.741Z,18.34
2017-01-13T04:37:48.260Z,18.49
2017-01-13T04:38:58.577Z,18.51
2017-01-13T04:40:09.281Z,18.51
2017-01-13T04:41:18.804Z,18.42
2017-01-13T04:42:27.534Z,18.45
2017-01-13T04:43:37.460Z,18.41
2017-01-13T04:44:48.162Z,18.33
2017-01-13T04:45:57.685Z,18.45
2017-01-13T04:47:08.388Z,18.33
2017-01-13T04:48:18.690Z,18.37
2017-01-13T04:49:27.828Z,18.43
2017-01-13T04:50:37.745Z,18.43
2017-01-13T04:51:48.075Z,18.41
2017-01-13T04:52:58.424Z,18.46
2017-01-13T04:54:09.440Z,18.43
2017-01-13T04:55:19.371Z,18.46
2017-01-13T04:56:30.087Z,18.57
2017-01-13T04:57:40.804Z,18.45
2017-01-13T04:58:50.353Z,18.51
2017-01-13T05:00:01.068Z,18.49
2017-01-13T05:01:10.986Z,18.51
2017-01-13T05:02:21.701Z,18.43
2017-01-13T05:03:31.619Z,18.46
2017-01-13T05:04:41.939Z,18.46
2017-01-13T05:05:52.256Z,18.51
2017-01-13T05:07:02.569Z,18.58
2017-01-13T05:08:12.517Z,18.48
2017-01-13T05:09:22.443Z,18.55
2017-01-13T05:10:32.760Z,18.52
2017-01-13T05:11:43.469Z,18.43
2017-01-13T05:12:53.399Z,18.52
2017-01-13T05:14:03.317Z,18.49
2017-01-13T05:15:12.837Z,18.43
2017-01-13T05:16:23.549Z,18.45
2017-01-13T05:17:33.877Z,18.46
2017-01-13T05:18:44.581Z,18.53
2017-01-13T05:19:54.506Z,18.55
2017-01-13T05:21:04.821Z,18.57
2017-01-13T05:22:15.128Z,18.55
2017-01-13T05:23:25.051Z,18.61
2017-01-13T05:24:35.800Z,18.58
2017-01-13T05:25:45.717Z,18.45
2017-01-13T05:26:55.643Z,18.55
2017-01-13T05:28:05.569Z,18.61
2017-01-13T05:29:15.495Z,18.55
2017-01-13T05:30:25.419Z,18.52
2017-01-13T05:31:36.129Z,18.53
2017-01-13T05:32:46.833Z,18.57
2017-01-13T05:33:56.379Z,18.58
2017-01-13T05:35:07.099Z,18.53
2017-01-13T05:36:17.022Z,18.53
2017-01-13T05:37:26.542Z,18.48
2017-01-13T05:38:37.271Z,18.55
2017-01-13T05:39:48.000Z,18.55
2017-01-13T05:40:57.952Z,18.61
2017-01-13T05:42:08.269Z,18.61
2017-01-13T05:43:18.589Z,18.58
2017-01-13T05:44:28.531Z,18.61
2017-01-13T05:45:38.845Z,18.55
2017-01-13T05:46:50.153Z,18.61
2017-01-13T05:48:00.861Z,18.48
2017-01-13T05:49:10.775Z,18.6
2017-01-13T05:50:21.098Z,18.6
2017-01-13T05:51:31.818Z,18.52
2017-01-13T05:52:41.738Z,18.58
2017-01-13T05:53:51.690Z,18.67
2017-01-13T05:55:02.403Z,18.66
2017-01-13T05:56:13.113Z,18.61
2017-01-13T05:57:23.827Z,18.6
2017-01-13T05:58:33.744Z,18.61
2017-01-13T05:59:43.669Z,18.57
2017-01-13T06:00:53.207Z,18.58
2017-01-13T06:02:03.523Z,18.58
2017-01-13T06:03:14.234Z,18.58
2017-01-13T06:04:24.551Z,18.6
2017-01-13T06:05:34.877Z,18.6
2017-01-13T06:06:45.200Z,18.58
2017-01-13T06:07:55.514Z,18.6
2017-01-13T06:09:06.222Z,18.57
2017-01-13T06:10:16.535Z,18.53
2017-01-13T06:11:26.487Z,18.52
2017-01-13T06:12:36.419Z,18.66
2017-01-13T06:13:46.734Z,18.7
2017-01-13T06:14:56.650Z,18.61
2017-01-13T06:16:07.364Z,18.57
2017-01-13T06:17:16.900Z,18.57
2017-01-13T06:18:27.627Z,18.58
2017-01-13T06:19:37.943Z,18.67
2017-01-13T06:20:48.253Z,18.73
2017-01-13T06:21:58.184Z,18.67
2017-01-13T06:23:07.313Z,18.6
2017-01-13T06:24:17.229Z,18.61
2017-01-13T06:25:27.543Z,18.64
2017-01-13T06:26:37.468Z,18.58
2017-01-13T06:27:48.176Z,18.6
2017-01-13T06:28:58.900Z,18.71
2017-01-13T06:30:09.616Z,18.64
2017-01-13T06:31:19.954Z,18.66
2017-01-13T06:32:30.672Z,18.67
2017-01-13T06:33:40.985Z,18.73
2017-01-13T06:34:51.728Z,18.6
2017-01-13T06:36:02.047Z,18.58
2017-01-13T06:37:12.751Z,18.71
2017-01-13T06:38:21.897Z,18.71
2017-01-13T06:39:32.607Z,18.73
2017-01-13T06:40:43.347Z,18.73
2017-01-13T06:41:53.283Z,18.7
2017-01-13T06:43:04.015Z,18.6
2017-01-13T06:44:14.352Z,18.58
2017-01-13T06:45:24.658Z,18.71
2017-01-13T06:46:35.391Z,18.68
2017-01-13T06:47:46.096Z,18.66
2017-01-13T06:48:56.429Z,18.64
2017-01-13T06:50:06.774Z,18.67
2017-01-13T06:51:17.084Z,18.7
2017-01-13T06:52:27.017Z,18.58
2017-01-13T06:53:36.965Z,18.74
2017-01-13T06:54:47.289Z,18.71
2017-01-13T06:55:58.003Z,18.73
2017-01-13T06:57:08.325Z,18.73
2017-01-13T06:58:19.055Z,18.78
2017-01-13T06:59:29.356Z,18.79
2017-01-13T07:00:40.073Z,18.68
2017-01-13T07:01:50.400Z,18.78
2017-01-13T07:02:59.932Z,18.78
2017-01-13T07:04:10.255Z,18.7
2017-01-13T07:05:19.773Z,18.71
2017-01-13T07:06:30.092Z,18.76
2017-01-13T07:07:40.445Z,18.79
2017-01-13T07:08:51.171Z,18.82
2017-01-13T07:10:01.110Z,18.74
2017-01-13T07:11:10.639Z,18.64
2017-01-13T07:12:21.379Z,18.73
2017-01-13T07:13:31.726Z,18.74
2017-01-13T07:14:42.061Z,18.74
2017-01-13T07:15:52.806Z,18.71
2017-01-13T07:17:03.131Z,18.73
2017-01-13T07:18:13.882Z,18.7
2017-01-13T07:19:23.850Z,18.73
2017-01-13T07:20:34.180Z,18.74
2017-01-13T07:21:44.128Z,18.71
2017-01-13T07:22:54.864Z,18.78
2017-01-13T07:24:05.575Z,18.78
2017-01-13T07:25:15.537Z,18.7
2017-01-13T07:26:25.858Z,18.76
2017-01-13T07:27:35.805Z,18.85
2017-01-13T07:28:46.127Z,18.78
2017-01-13T07:29:56.858Z,18.83
2017-01-13T07:31:07.587Z,18.86
2017-01-13T07:32:18.320Z,18.85
2017-01-13T07:33:28.653Z,18.83
2017-01-13T07:34:38.989Z,18.83
2017-01-13T07:35:48.523Z,18.85
2017-01-13T07:36:58.845Z,18.86
2017-01-13T07:38:09.159Z,18.89
2017-01-13T07:39:19.498Z,18.88
2017-01-13T07:40:30.225Z,18.85
2017-01-13T07:41:39.367Z,18.86
2017-01-13T07:42:50.078Z,18.85
2017-01-13T07:44:00.405Z,18.89
2017-01-13T07:45:11.136Z,18.91
2017-01-13T07:46:21.902Z,18.92
2017-01-13T07:47:32.254Z,18.88
2017-01-13T07:48:42.592Z,18.85
2017-01-13T07:49:52.913Z,18.85
2017-01-13T07:51:03.281Z,18.85
2017-01-13T07:52:13.614Z,18.92
2017-01-13T07:53:24.338Z,18.88
2017-01-13T07:54:34.331Z,18.92
2017-01-13T07:55:44.658Z,18.89
2017-01-13T07:56:54.978Z,18.85
2017-01-13T07:58:05.299Z,18.89
2017-01-13T07:59:16.021Z,18.83
2017-01-13T08:00:26.757Z,18.88
2017-01-13T08:01:37.097Z,18.92
2017-01-13T08:02:47.471Z,18.92
2017-01-13T08:03:58.223Z,18.86
2017-01-13T08:05:08.578Z,18.85
2017-01-13T08:06:18.908Z,18.91
2017-01-13T08:07:29.241Z,18.92
2017-01-13T08:08:39.958Z,18.89
2017-01-13T08:09:49.894Z,18.89
2017-01-13T08:11:00.252Z,18.88
2017-01-13T08:12:10.182Z,18.92
2017-01-13T08:13:20.883Z,18.89
2017-01-13T08:14:30.419Z,18.89
2017-01-13T08:15:40.772Z,18.89
2017-01-13T08:16:51.107Z,18.88
2017-01-13T08:18:01.433Z,18.96
2017-01-13T08:19:12.163Z,19.05
2017-01-13T08:20:22.108Z,19.04
2017-01-13T08:21:32.063Z,18.89
2017-01-13T08:22:42.006Z,19.05
2017-01-13T08:23:52.348Z,19.04
2017-01-13T08:25:03.097Z,18.98
2017-01-13T08:26:13.443Z,19.04
2017-01-13T08:27:23.770Z,19.08
2017-01-13T08:28:34.538Z,19.01
2017-01-13T08:29:44.470Z,19.04
2017-01-13T08:30:55.220Z,19.04
2017-01-13T08:32:05.166Z,18.96
2017-01-13T08:33:15.485Z,18.98
2017-01-13T08:34:26.278Z,19
2017-01-13T08:35:36.206Z,19.04
2017-01-13T08:36:46.551Z,19.09
2017-01-13T08:37:56.126Z,19.12
2017-01-13T08:39:06.449Z,19.04
2017-01-13T08:40:16.813Z,19.08
2017-01-13T08:41:27.136Z,19.04
2017-01-13T08:42:37.518Z,19.08
2017-01-13T08:43:48.277Z,19.01
2017-01-13T08:44:59.012Z,19.07
2017-01-13T08:46:09.378Z,19.11
2017-01-13T08:47:20.095Z,19.04
2017-01-13T08:48:29.636Z,19.07
2017-01-13T08:49:40.370Z,19.01
2017-01-13T08:50:51.102Z,19.04
2017-01-13T08:52:00.666Z,19.08
2017-01-13T08:53:10.997Z,19.08
2017-01-13T08:54:21.336Z,19.11
2017-01-13T08:55:31.674Z,19.07
2017-01-13T08:56:42.020Z,19.07
2017-01-13T08:57:52.351Z,19.09
2017-01-13T08:59:02.283Z,19.09
2017-01-13T09:00:12.641Z,19.11
2017-01-13T09:01:23.377Z,19.01
2017-01-13T09:02:33.701Z,19.08
2017-01-13T09:03:43.649Z,19.08
2017-01-13T09:04:54.431Z,19.07
2017-01-13T09:06:05.163Z,19.12
2017-01-13T09:07:15.480Z,19.08
2017-01-13T09:08:25.839Z,19.08
2017-01-13T09:09:35.768Z,19.08
2017-01-13T09:10:45.696Z,19.15
2017-01-13T09:11:56.043Z,19.09
2017-01-13T09:13:05.986Z,19.04
2017-01-13T09:14:15.933Z,19.04
2017-01-13T09:15:25.832Z,19.08
2017-01-13T09:16:36.166Z,19.08
2017-01-13T09:17:46.904Z,19.09
2017-01-13T09:18:57.221Z,19.05
2017-01-13T09:20:07.198Z,19.08
2017-01-13T09:21:17.529Z,19.05
2017-01-13T09:22:28.108Z,19.08
2017-01-13T09:23:38.462Z,19.05
2017-01-13T09:24:48.408Z,19.04
2017-01-13T09:25:58.344Z,19.08
2017-01-13T09:27:08.277Z,19.05
2017-01-13T09:28:18.216Z,19.07
2017-01-13T09:29:28.569Z,19.04
2017-01-13T09:30:37.704Z,19.16
2017-01-13T09:31:48.057Z,19.2
2017-01-13T09:32:58.392Z,19.17
2017-01-13T09:34:09.132Z,19.2
2017-01-13T09:35:19.058Z,19.17
2017-01-13T09:36:29.400Z,19.17
2017-01-13T09:37:40.126Z,19.2
2017-01-13T09:38:50.456Z,19.2
2017-01-13T09:40:00.388Z,19.23
2017-01-13T09:41:11.126Z,19.15
2017-01-13T09:42:21.053Z,19.26
2017-01-13T09:43:31.768Z,19.26
2017-01-13T09:44:42.088Z,19.17
2017-01-13T09:45:52.843Z,19.19
2017-01-13T09:47:02.818Z,19.22
2017-01-13T09:48:13.181Z,19.17
2017-01-13T09:49:23.116Z,19.17
2017-01-13T09:50:33.456Z,19.19
2017-01-13T09:51:43.784Z,19.19
2017-01-13T09:52:54.120Z,19.2
2017-01-13T09:54:04.063Z,19.26
2017-01-13T09:55:14.793Z,19.12
2017-01-13T09:56:25.150Z,19.16
2017-01-13T09:57:35.899Z,19.19
2017-01-13T09:58:46.247Z,19.2
2017-01-13T09:59:57.011Z,19.22
2017-01-13T10:01:06.972Z,19.15
2017-01-13T10:02:17.301Z,19.19
2017-01-13T10:03:27.270Z,19.15
2017-01-13T10:04:37.986Z,19.17
2017-01-13T10:05:48.325Z,19.17
2017-01-13T10:06:57.877Z,19.17
2017-01-13T10:08:08.195Z,19.17
2017-01-13T10:09:18.167Z,19.2
2017-01-13T10:10:28.103Z,19.15
2017-01-13T10:11:38.831Z,19.16
2017-01-13T10:12:49.554Z,19.19
2017-01-13T10:14:00.284Z,19.12
2017-01-13T10:15:10.242Z,19.19
2017-01-13T10:16:20.594Z,19.16
2017-01-13T10:17:30.945Z,19.19
2017-01-13T10:18:41.691Z,19.16
2017-01-13T10:19:52.439Z,19.17
2017-01-13T10:21:02.779Z,19.22
2017-01-13T10:22:12.711Z,19.24
2017-01-13T10:23:23.047Z,19.2
2017-01-13T10:24:33.382Z,19.19
2017-01-13T10:25:43.730Z,19.2
2017-01-13T10:26:54.453Z,19.24
2017-01-13T10:28:04.787Z,19.27
2017-01-13T10:29:15.114Z,19.27
2017-01-13T10:30:25.456Z,19.26
2017-01-13T10:31:35.374Z,19.22
2017-01-13T10:32:45.693Z,19.2
2017-01-13T10:33:56.038Z,19.26
2017-01-13T10:35:06.783Z,19.22
2017-01-13T10:36:16.307Z,19.23
2017-01-13T10:37:26.626Z,19.2
2017-01-13T10:38:36.159Z,19.2
2017-01-13T10:39:46.501Z,19.2
2017-01-13T10:40:56.422Z,19.27
2017-01-13T10:42:06.754Z,19.27
2017-01-13T10:43:16.683Z,19.27
2017-01-13T10:44:26.997Z,19.23
2017-01-13T10:45:37.336Z,19.29
2017-01-13T10:46:48.063Z,19.2
2017-01-13T10:47:58.770Z,19.27
2017-01-13T10:49:09.128Z,19.27
2017-01-13T10:50:19.061Z,19.23
2017-01-13T10:51:29.775Z,19.32
2017-01-13T10:52:40.103Z,19.27
2017-01-13T10:53:50.043Z,19.35
2017-01-13T10:55:00.360Z,19.37
2017-01-13T10:56:10.292Z,19.24
2017-01-13T10:57:20.213Z,19.34
2017-01-13T10:58:30.952Z,19.29
2017-01-13T10:59:41.689Z,19.26
2017-01-13T11:00:51.631Z,19.29
2017-01-13T11:02:01.969Z,19.23
2017-01-13T11:03:12.287Z,19.3
2017-01-13T11:04:22.606Z,19.24
2017-01-13T11:05:32.539Z,19.27
2017-01-13T11:06:42.868Z,19.29
2017-01-13T11:07:53.249Z,19.32
2017-01-13T11:09:03.202Z,19.38
2017-01-13T11:10:13.141Z,19.37
2017-01-13T11:11:23.467Z,19.26
2017-01-13T11:12:34.209Z,19.35
2017-01-13T11:13:44.533Z,19.35
2017-01-13T11:14:54.863Z,19.3
2017-01-13T11:16:05.200Z,19.35
2017-01-13T11:17:16.165Z,19.37
2017-01-13T11:18:26.101Z,19.32
2017-01-13T11:19:36.456Z,19.34
2017-01-13T11:20:46.786Z,19.3
2017-01-13T11:21:55.947Z,19.37
2017-01-13T11:23:06.264Z,19.29
2017-01-13T11:24:16.197Z,19.34
2017-01-13T11:25:26.511Z,19.32
2017-01-13T11:26:37.243Z,19.3
2017-01-13T11:27:47.176Z,19.32
2017-01-13T11:28:57.519Z,19.3
2017-01-13T11:30:07.455Z,19.34
2017-01-13T11:31:17.870Z,19.3
2017-01-13T11:32:28.600Z,19.35
2017-01-13T11:33:38.531Z,19.37
2017-01-13T11:34:48.901Z,19.27
2017-01-13T11:35:58.841Z,19.22
2017-01-13T11:37:09.189Z,19.32
2017-01-13T11:38:19.534Z,19.29
2017-01-13T11:39:29.455Z,19.26
2017-01-13T11:40:38.991Z,19.29
2017-01-13T11:41:48.529Z,19.2
2017-01-13T11:42:59.248Z,19.35
2017-01-13T11:44:09.970Z,19.29
2017-01-13T11:45:19.910Z,19.34
2017-01-13T11:46:29.840Z,19.34
2017-01-13T11:47:39.778Z,19.34
2017-01-13T11:48:49.718Z,19.3
2017-01-13T11:50:00.059Z,19.29
2017-01-13T11:51:10.011Z,19.27
2017-01-13T11:52:20.354Z,19.3
2017-01-13T11:53:30.691Z,19.32
2017-01-13T11:54:41.416Z,19.44
2017-01-13T11:55:52.199Z,19.38
2017-01-13T11:57:02.937Z,19.37
2017-01-13T11:58:13.714Z,19.26
2017-01-13T11:59:24.040Z,19.24
2017-01-13T12:00:34.782Z,19.26
2017-01-13T12:01:45.503Z,19.19
2017-01-13T12:02:55.836Z,19.27
2017-01-13T12:04:06.159Z,19.24
2017-01-13T12:05:16.886Z,19.26
2017-01-13T12:06:26.872Z,19.24
2017-01-13T12:07:37.617Z,19.26
2017-01-13T12:08:48.358Z,19.26
2017-01-13T12:09:58.966Z,19.29
2017-01-13T12:11:09.702Z,19.26
2017-01-13T12:12:20.067Z,19.26
2017-01-13T12:13:30.031Z,19.27
2017-01-13T12:14:40.370Z,19.34
2017-01-13T12:15:51.149Z,19.3
2017-01-13T12:17:01.323Z,19.23
2017-01-13T12:18:11.692Z,19.27
2017-01-13T12:19:22.056Z,19.29
2017-01-13T12:20:32.390Z,19.2
2017-01-13T12:21:43.160Z,19.23
2017-01-13T12:22:54.135Z,19.27
2017-01-13T12:24:04.886Z,19.26
2017-01-13T12:25:15.241Z,19.3
2017-01-13T12:26:26.021Z,19.3
2017-01-13T12:27:36.358Z,19.3
2017-01-13T12:28:46.402Z,19.37
2017-01-13T12:29:57.189Z,19.27
2017-01-13T12:31:07.563Z,19.29
2017-01-13T12:32:17.535Z,19.26
2017-01-13T12:33:28.327Z,19.23
2017-01-13T12:34:39.052Z,19.27
2017-01-13T12:35:49.849Z,19.26
2017-01-13T12:37:00.585Z,19.22
2017-01-13T12:38:10.537Z,19.29
2017-01-13T12:39:21.299Z,19.26
2017-01-13T12:40:31.247Z,19.26
2017-01-13T12:41:41.290Z,19.22
2017-01-13T12:42:52.019Z,19.23
2017-01-13T12:44:02.371Z,19.24
2017-01-13T12:45:12.745Z,19.17
2017-01-13T12:46:23.510Z,19.2
2017-01-13T12:47:33.862Z,19.19
2017-01-13T12:48:44.195Z,19.16
2017-01-13T12:49:54.540Z,19.2
2017-01-13T12:51:05.280Z,19.15
2017-01-13T12:52:15.232Z,19.22
2017-01-13T12:53:25.171Z,19.19
2017-01-13T12:54:35.543Z,19.15
2017-01-13T12:55:45.930Z,19.15
2017-01-13T12:56:56.671Z,19.19
2017-01-13T12:58:07.394Z,19.23
2017-01-13T12:59:17.354Z,19.16
2017-01-13T13:00:27.693Z,19.16
2017-01-13T13:01:38.051Z,19.16
2017-01-13T13:02:48.397Z,19.2
2017-01-13T13:03:58.739Z,19.17
2017-01-13T13:05:09.488Z,19.17
2017-01-13T13:06:19.831Z,19.17
2017-01-13T13:07:29.776Z,19.15
2017-01-13T13:08:40.718Z,19.12
2017-01-13T13:09:51.475Z,19.15
2017-01-13T13:11:02.227Z,19.19
2017-01-13T13:12:12.154Z,19.19
2017-01-13T13:13:22.918Z,19.2
2017-01-13T13:14:33.667Z,19.2
2017-01-13T13:15:43.650Z,19.15
2017-01-13T13:16:54.726Z,19.15
2017-01-13T13:18:05.455Z,19.17
2017-01-13T13:19:15.389Z,19.15
2017-01-13T13:20:25.721Z,19.11
2017-01-13T13:21:36.054Z,19.11
2017-01-13T13:22:46.778Z,19.15
2017-01-13T13:23:57.111Z,19.08
2017-01-13T13:25:07.056Z,18.97
2017-01-13T13:26:17.373Z,19.08
2017-01-13T13:27:27.709Z,19.17
2017-01-13T13:28:37.258Z,19.19
2017-01-13T13:29:47.985Z,19.19
2017-01-13T13:30:58.736Z,19.08
2017-01-13T13:32:09.072Z,19.07
2017-01-13T13:33:19.491Z,19.04
2017-01-13T13:34:29.843Z,19.16
2017-01-13T13:35:40.374Z,19.08
2017-01-13T13:36:51.200Z,19.05
2017-01-13T13:38:02.281Z,19.12
2017-01-13T13:39:12.230Z,19.09
2017-01-13T13:40:22.201Z,19.11
2017-01-13T13:41:32.934Z,19.19
2017-01-13T13:42:42.915Z,19.01
2017-01-13T13:43:53.654Z,19.07
2017-01-13T13:45:03.595Z,19.07
2017-01-13T13:46:13.936Z,19.05
2017-01-13T13:47:24.304Z,19.15
2017-01-13T13:48:35.039Z,19.12
2017-01-13T13:49:44.993Z,19.09
2017-01-13T13:50:55.333Z,19.11
2017-01-13T13:52:05.712Z,19.09
2017-01-13T13:53:16.044Z,19.08
2017-01-13T13:54:26.376Z,19.11
2017-01-13T13:55:35.912Z,19.07
2017-01-13T13:56:46.619Z,19.08
2017-01-13T13:57:55.752Z,19.04
2017-01-13T13:59:06.505Z,19.08
2017-01-13T14:00:17.233Z,19.08
2017-01-13T14:01:27.960Z,19.11
2017-01-13T14:02:38.682Z,19.07
2017-01-13T14:03:49.396Z,19.07
2017-01-13T14:04:59.733Z,19.08
2017-01-13T14:06:10.465Z,19.04
2017-01-13T14:07:20.401Z,19.08
2017-01-13T14:08:30.339Z,19.08
2017-01-13T14:09:41.075Z,19.01
2017-01-13T14:10:51.786Z,19.04
2017-01-13T14:12:02.517Z,18.97
2017-01-13T14:13:13.252Z,19.05
2017-01-13T14:14:23.981Z,18.98
2017-01-13T14:15:34.302Z,19.01
2017-01-13T14:16:43.457Z,19
2017-01-13T14:17:54.187Z,19
2017-01-13T14:19:04.531Z,18.96
2017-01-13T14:20:14.085Z,19.08
2017-01-13T14:21:24.422Z,19.01
2017-01-13T14:22:34.353Z,19.04
2017-01-13T14:23:45.070Z,19.01
2017-01-13T14:24:55.402Z,19
2017-01-13T14:26:06.165Z,19.01
2017-01-13T14:27:16.913Z,19.07
2017-01-13T14:28:27.655Z,19.05
2017-01-13T14:29:37.182Z,18.96
2017-01-13T14:30:47.498Z,18.96
2017-01-13T14:31:57.816Z,19.09
2017-01-13T14:33:08.143Z,19.05
2017-01-13T14:34:18.907Z,18.97
2017-01-13T14:35:29.621Z,19
2017-01-13T14:36:40.394Z,19
2017-01-13T14:37:50.778Z,18.92
2017-01-13T14:39:01.130Z,18.91
2017-01-13T14:40:11.433Z,18.92
2017-01-13T14:41:21.754Z,19
2017-01-13T14:42:31.687Z,18.92
2017-01-13T14:43:42.419Z,18.98
2017-01-13T14:44:52.759Z,18.92
2017-01-13T14:46:02.714Z,18.97
2017-01-13T14:47:12.650Z,18.98
2017-01-13T14:48:22.968Z,18.92
2017-01-13T14:49:33.306Z,19
2017-01-13T14:50:43.656Z,18.98
2017-01-13T14:51:54.001Z,19.04
2017-01-13T14:53:04.724Z,19
2017-01-13T14:54:15.430Z,18.98
2017-01-13T14:55:25.733Z,18.94
2017-01-13T14:56:36.434Z,18.94
2017-01-13T14:57:46.375Z,18.94
2017-01-13T14:58:57.079Z,18.94
2017-01-13T15:00:07.395Z,18.88
2017-01-13T15:01:16.904Z,18.98
2017-01-13T15:02:27.253Z,18.96
2017-01-13T15:03:36.800Z,19.01
2017-01-13T15:04:46.722Z,18.98
2017-01-13T15:05:57.455Z,18.98
2017-01-13T15:07:07.410Z,18.91
2017-01-13T15:08:18.356Z,18.94